Time;durP1;ratioP1;P1;durP2;ratioP2;P2;SDS_P1;SDS_P2;PMS_P1;PMS_P2;Temp;Humidity;BMP_temperature;BMP_pressure;BME280_temperature;BME280_humidity;BME280_pressure;Samples;Min_cycle;Max_cycle;Signal;HPM_P1;HPM_P2
2021/06/20 00:01:39;;;;;;;10.65;6.47;;;;;;;;;;5087551;28;20024;-72
2021/06/20 00:04:06;;;;;;;9.50;6.40;;;;;;;;;;5084124;28;20036;-72
2021/06/20 00:06:36;;;;;;;11.38;6.70;;;;;;;;;;5088580;28;20120;-72
2021/06/20 00:09:06;;;;;;;9.27;7.25;;;;;;;;;;5086340;28;20043;-72
2021/06/20 00:11:33;;;;;;;11.73;6.50;;;;;;;;;;5074645;28;20028;-72
2021/06/20 00:13:59;;;;;;;11.40;6.90;;;;;;;;;;5068582;28;20038;-72
2021/06/20 00:16:25;;;;;;;8.70;6.50;;;;;;;;;;5072292;28;20182;-72
2021/06/20 00:18:51;;;;;;;9.93;6.15;;;;;;;;;;5072773;28;20051;-72
2021/06/20 00:21:18;;;;;;;9.90;7.22;;;;;;;;;;5060449;28;20385;-71
2021/06/20 00:23:44;;;;;;;11.32;6.53;;;;;;;;;;5084136;28;20363;-72
2021/06/20 00:26:10;;;;;;;10.95;8.20;;;;;;;;;;5086350;28;20016;-72
2021/06/20 00:28:36;;;;;;;11.50;7.22;;;;;;;;;;5074215;28;20078;-72
2021/06/20 00:31:02;;;;;;;10.73;6.80;;;;;;;;;;5069296;28;20025;-72
2021/06/20 00:33:28;;;;;;;10.77;6.93;;;;;;;;;;5081886;28;20101;-72
2021/06/20 00:35:55;;;;;;;10.02;6.43;;;;;;;;;;5084733;28;20033;-72
2021/06/20 00:38:21;;;;;;;13.77;7.45;;;;;;;;;;5071367;28;20158;-71
2021/06/20 00:40:47;;;;;;;12.88;8.77;;;;;;;;;;5072322;28;20077;-72
2021/06/20 00:43:14;;;;;;;11.40;8.02;;;;;;;;;;5079380;28;20032;-72
2021/06/20 00:45:40;;;;;;;11.90;8.15;;;;;;;;;;5077683;28;20025;-72
2021/06/20 00:48:06;;;;;;;10.90;8.35;;;;;;;;;;5060338;28;20032;-72
2021/06/20 00:50:32;;;;;;;11.82;7.82;;;;;;;;;;5074608;28;20048;-72
2021/06/20 00:52:59;;;;;;;10.75;7.95;;;;;;;;;;5073930;28;20020;-72
2021/06/20 00:55:29;;;;;;;13.82;9.32;;;;;;;;;;5075481;28;20123;-72
2021/06/20 00:57:55;;;;;;;11.93;8.65;;;;;;;;;;5079426;28;20074;-72
2021/06/20 01:00:21;;;;;;;9.20;7.82;;;;;;;;;;5074942;28;20106;-72
2021/06/20 01:02:48;;;;;;;10.98;8.50;;;;;;;;;;5085584;28;20043;-72
2021/06/20 01:05:14;;;;;;;9.35;7.40;;;;;;;;;;5061694;28;20029;-72
2021/06/20 01:07:40;;;;;;;12.45;7.07;;;;;;;;;;5071854;28;20098;-72
2021/06/20 01:10:07;;;;;;;8.70;7.63;;;;;;;;;;5069628;28;20475;-72
2021/06/20 01:12:33;;;;;;;11.52;7.90;;;;;;;;;;5080849;28;20036;-72
2021/06/20 01:15:00;;;;;;;11.38;8.65;;;;;;;;;;5075932;28;20056;-72
2021/06/20 01:17:26;;;;;;;13.05;8.70;;;;;;;;;;5079215;28;20025;-72
2021/06/20 01:19:52;;;;;;;14.77;9.15;;;;;;;;;;5087126;28;20523;-72
2021/06/20 01:22:22;;;;;;;11.52;8.50;;;;;;;;;;5081903;28;20032;-73
2021/06/20 01:24:50;;;;;;;13.05;8.68;;;;;;;;;;5094016;28;20035;-72
2021/06/20 01:27:16;;;;;;;13.48;8.23;;;;;;;;;;5073401;28;20078;-72
2021/06/20 01:29:48;;;;;;;11.82;9.30;;;;;;;;;;5076744;28;20033;-72
2021/06/20 01:32:15;;;;;;;12.32;8.98;;;;;;;;;;5077487;28;20016;-72
2021/06/20 01:34:41;;;;;;;10.80;8.65;;;;;;;;;;5080965;28;20052;-73
2021/06/20 01:37:10;;;;;;;9.52;8.15;;;;;;;;;;5083009;28;20024;-72
2021/06/20 01:39:39;;;;;;;11.38;7.88;;;;;;;;;;5066232;28;20487;-72
2021/06/20 01:42:05;;;;;;;9.32;8.10;;;;;;;;;;5085146;28;20027;-72
2021/06/20 01:44:32;;;;;;;9.18;8.23;;;;;;;;;;5095788;28;20017;-72
2021/06/20 01:46:58;;;;;;;11.68;8.20;;;;;;;;;;5082096;28;20063;-72
2021/06/20 01:49:24;;;;;;;11.65;9.02;;;;;;;;;;5084727;28;20488;-72
2021/06/20 01:51:51;;;;;;;10.57;8.40;;;;;;;;;;5095283;28;20048;-71
2021/06/20 01:54:18;;;;;;;10.93;8.20;;;;;;;;;;5079979;28;20028;-72
2021/06/20 01:56:44;;;;;;;11.68;8.38;;;;;;;;;;5070185;28;20095;-72
2021/06/20 01:59:10;;;;;;;12.57;8.43;;;;;;;;;;5088583;28;20084;-73
2021/06/20 02:01:36;;;;;;;12.43;8.10;;;;;;;;;;5076963;28;20039;-72
2021/06/20 02:04:02;;;;;;;10.25;7.60;;;;;;;;;;5076295;28;20491;-72
2021/06/20 02:06:28;;;;;;;8.18;7.07;;;;;;;;;;5080129;28;20478;-72
2021/06/20 02:08:54;;;;;;;9.73;7.95;;;;;;;;;;5092390;28;20393;-72
2021/06/20 02:11:20;;;;;;;9.32;7.38;;;;;;;;;;5089198;28;20541;-72
2021/06/20 02:13:46;;;;;;;10.48;7.93;;;;;;;;;;5079669;28;20466;-72
2021/06/20 02:16:12;;;;;;;10.02;7.35;;;;;;;;;;5076229;28;20500;-72
2021/06/20 02:18:38;;;;;;;9.82;7.50;;;;;;;;;;5092366;28;20517;-72
2021/06/20 02:21:04;;;;;;;11.30;8.30;;;;;;;;;;5070805;28;20414;-72
2021/06/20 02:23:30;;;;;;;12.18;8.27;;;;;;;;;;5079769;28;20505;-72
2021/06/20 02:25:57;;;;;;;10.18;8.07;;;;;;;;;;5085468;28;20031;-72
2021/06/20 02:28:23;;;;;;;11.57;8.45;;;;;;;;;;5082630;28;20028;-72
2021/06/20 02:30:49;;;;;;;9.93;8.00;;;;;;;;;;5073693;28;20113;-72
2021/06/20 02:33:15;;;;;;;12.90;8.95;;;;;;;;;;5084604;28;20390;-72
2021/06/20 02:35:41;;;;;;;11.27;8.60;;;;;;;;;;5079278;28;20546;-72
2021/06/20 02:38:07;;;;;;;11.57;8.52;;;;;;;;;;5088897;28;20031;-72
2021/06/20 02:40:33;;;;;;;11.32;8.05;;;;;;;;;;5090657;28;20013;-72
2021/06/20 02:42:59;;;;;;;13.60;9.30;;;;;;;;;;5079068;28;20478;-72
2021/06/20 02:45:25;;;;;;;9.32;8.20;;;;;;;;;;5089735;28;20498;-72
2021/06/20 02:47:52;;;;;;;12.82;9.68;;;;;;;;;;5079120;28;20053;-72
2021/06/20 02:50:19;;;;;;;11.25;9.50;;;;;;;;;;5078809;28;20143;-72
2021/06/20 02:52:45;;;;;;;10.65;9.10;;;;;;;;;;5078390;28;20024;-72
2021/06/20 02:55:11;;;;;;;14.98;10.20;;;;;;;;;;5085231;28;20062;-72
2021/06/20 02:57:37;;;;;;;14.57;9.98;;;;;;;;;;5075665;28;20032;-72
2021/06/20 03:00:04;;;;;;;14.05;10.90;;;;;;;;;;5074661;28;20086;-72
2021/06/20 03:02:30;;;;;;;12.13;9.60;;;;;;;;;;5076059;28;20020;-72
2021/06/20 03:04:56;;;;;;;17.23;9.40;;;;;;;;;;5072358;28;20033;-72
2021/06/20 03:07:23;;;;;;;13.80;9.95;;;;;;;;;;5075705;28;20390;-72
2021/06/20 03:09:49;;;;;;;14.32;9.52;;;;;;;;;;5073601;28;20028;-72
2021/06/20 03:12:15;;;;;;;13.48;9.85;;;;;;;;;;5087464;28;20497;-72
2021/06/20 03:14:42;;;;;;;13.27;9.05;;;;;;;;;;5076752;28;20040;-72
2021/06/20 03:17:09;;;;;;;12.50;8.95;;;;;;;;;;5073013;28;20029;-72
2021/06/20 03:19:35;;;;;;;13.48;9.85;;;;;;;;;;5075299;28;20025;-72
2021/06/20 03:22:02;;;;;;;12.00;8.50;;;;;;;;;;5086054;28;20021;-72
2021/06/20 03:24:29;;;;;;;13.35;10.02;;;;;;;;;;5075737;28;20028;-71
2021/06/20 03:26:55;;;;;;;13.48;10.50;;;;;;;;;;5074527;28;20028;-71
2021/06/20 03:29:21;;;;;;;13.82;9.63;;;;;;;;;;5072285;28;20112;-72
2021/06/20 03:31:48;;;;;;;12.07;9.88;;;;;;;;;;5053403;28;20048;-72
2021/06/20 03:34:14;;;;;;;11.45;9.20;;;;;;;;;;5088016;28;20028;-71
2021/06/20 03:36:40;;;;;;;11.70;9.60;;;;;;;;;;5076858;28;20060;-72
2021/06/20 03:39:07;;;;;;;14.32;10.27;;;;;;;;;;5086622;28;20020;-71
2021/06/20 03:41:33;;;;;;;12.48;9.27;;;;;;;;;;5085961;28;20028;-72
2021/06/20 03:43:59;;;;;;;12.77;10.55;;;;;;;;;;5075384;28;20105;-72
2021/06/20 03:46:25;;;;;;;13.30;9.77;;;;;;;;;;5073974;28;20031;-72
2021/06/20 03:48:51;;;;;;;14.52;9.68;;;;;;;;;;5076377;28;20020;-72
2021/06/20 03:51:17;;;;;;;12.88;10.20;;;;;;;;;;5085837;28;20502;-72
2021/06/20 03:53:44;;;;;;;15.05;10.68;;;;;;;;;;5078442;28;20028;-72
2021/06/20 03:56:10;;;;;;;14.65;9.93;;;;;;;;;;5073058;28;20109;-72
2021/06/20 03:58:37;;;;;;;12.40;9.73;;;;;;;;;;5082212;28;20036;-72
2021/06/20 04:01:03;;;;;;;12.07;9.95;;;;;;;;;;5074530;28;20045;-73
2021/06/20 04:03:30;;;;;;;13.40;10.38;;;;;;;;;;5072402;28;20025;-72
2021/06/20 04:05:56;;;;;;;14.65;10.35;;;;;;;;;;5073315;28;20028;-72
2021/06/20 04:08:22;;;;;;;13.38;9.95;;;;;;;;;;5078852;28;20089;-72
2021/06/20 04:10:48;;;;;;;14.82;11.07;;;;;;;;;;5071614;28;20600;-72
2021/06/20 04:13:14;;;;;;;14.57;10.55;;;;;;;;;;5070816;28;20550;-72
2021/06/20 04:15:41;;;;;;;14.82;10.07;;;;;;;;;;5076144;28;20024;-72
2021/06/20 04:18:07;;;;;;;12.70;10.25;;;;;;;;;;5088265;28;20027;-72
2021/06/20 04:20:34;;;;;;;16.33;10.93;;;;;;;;;;5080310;28;20367;-72
2021/06/20 04:23:00;;;;;;;13.88;10.32;;;;;;;;;;5074941;28;20340;-72
2021/06/20 04:25:26;;;;;;;14.32;10.60;;;;;;;;;;5067510;28;20087;-72
2021/06/20 04:27:52;;;;;;;14.35;10.57;;;;;;;;;;5071604;28;20024;-72
2021/06/20 04:30:19;;;;;;;14.55;10.40;;;;;;;;;;5067159;28;20422;-72
2021/06/20 04:32:46;;;;;;;16.70;11.95;;;;;;;;;;5087450;28;20384;-71
2021/06/20 04:35:13;;;;;;;16.48;10.23;;;;;;;;;;5070322;28;20025;-72
2021/06/20 04:37:39;;;;;;;13.23;10.05;;;;;;;;;;5071269;28;20390;-72
2021/06/20 04:40:07;;;;;;;13.90;10.23;;;;;;;;;;5082316;28;20394;-72
2021/06/20 04:42:36;;;;;;;15.40;10.45;;;;;;;;;;5072274;28;20074;-72
2021/06/20 04:45:03;;;;;;;13.95;10.45;;;;;;;;;;5073971;28;20029;-72
2021/06/20 04:47:29;;;;;;;14.98;10.02;;;;;;;;;;5090833;28;20119;-72
2021/06/20 04:49:56;;;;;;;14.55;9.93;;;;;;;;;;5085029;28;20074;-72
2021/06/20 04:52:22;;;;;;;17.58;10.73;;;;;;;;;;5073269;28;20036;-72
2021/06/20 04:54:51;;;;;;;19.88;11.52;;;;;;;;;;5074258;28;20028;-72
2021/06/20 04:57:18;;;;;;;15.10;10.75;;;;;;;;;;5079509;28;20046;-71
2021/06/20 04:59:45;;;;;;;12.82;9.50;;;;;;;;;;5072128;28;20074;-72
2021/06/20 05:02:11;;;;;;;14.20;10.65;;;;;;;;;;5084836;28;20032;-72
2021/06/20 05:04:38;;;;;;;15.18;9.85;;;;;;;;;;5072732;28;20096;-71
2021/06/20 05:07:04;;;;;;;15.27;10.68;;;;;;;;;;5072877;28;20020;-72
2021/06/20 05:09:30;;;;;;;13.00;10.73;;;;;;;;;;5076471;28;20099;-72
2021/06/20 05:11:57;;;;;;;12.88;10.23;;;;;;;;;;5072202;28;20035;-72
2021/06/20 05:14:23;;;;;;;13.20;9.80;;;;;;;;;;5074350;28;20027;-72
2021/06/20 05:16:49;;;;;;;13.05;10.57;;;;;;;;;;5092285;28;20031;-72
2021/06/20 05:19:15;;;;;;;16.60;10.50;;;;;;;;;;5077611;28;20065;-73
2021/06/20 05:21:41;;;;;;;13.52;10.15;;;;;;;;;;5072574;28;20116;-73
2021/06/20 05:24:07;;;;;;;13.73;10.50;;;;;;;;;;5058307;28;20490;-72
2021/06/20 05:26:33;;;;;;;13.88;10.32;;;;;;;;;;5071983;28;20119;-73
2021/06/20 05:28:59;;;;;;;17.02;10.20;;;;;;;;;;5081627;28;20031;-73
2021/06/20 05:31:25;;;;;;;16.70;11.15;;;;;;;;;;5084394;28;20077;-73
2021/06/20 05:33:51;;;;;;;12.10;9.70;;;;;;;;;;5079826;28;20038;-73
2021/06/20 05:36:17;;;;;;;14.80;10.00;;;;;;;;;;5071304;28;20056;-72
2021/06/20 05:38:44;;;;;;;16.30;10.27;;;;;;;;;;5073475;28;20079;-74
2021/06/20 05:41:10;;;;;;;13.75;9.90;;;;;;;;;;5069850;28;20120;-72
2021/06/20 05:43:36;;;;;;;14.43;10.18;;;;;;;;;;5071911;28;20048;-73
2021/06/20 05:46:03;;;;;;;15.63;9.63;;;;;;;;;;5085268;28;20085;-73
2021/06/20 05:48:29;;;;;;;17.83;10.48;;;;;;;;;;5090213;28;20028;-72
2021/06/20 05:50:55;;;;;;;12.27;9.20;;;;;;;;;;5074024;28;20468;-73
2021/06/20 05:53:21;;;;;;;12.85;9.55;;;;;;;;;;5066754;28;20067;-73
2021/06/20 05:55:47;;;;;;;12.05;8.63;;;;;;;;;;5071847;28;20051;-71
2021/06/20 05:58:14;;;;;;;13.05;9.52;;;;;;;;;;5075426;28;20024;-71
2021/06/20 06:00:40;;;;;;;11.50;9.20;;;;;;;;;;5085579;28;20029;-72
2021/06/20 06:03:06;;;;;;;11.07;9.15;;;;;;;;;;5075318;28;20017;-72
2021/06/20 06:05:32;;;;;;;11.20;8.93;;;;;;;;;;5081989;28;20028;-73
2021/06/20 06:07:58;;;;;;;12.48;8.45;;;;;;;;;;5094111;28;20486;-72
2021/06/20 06:10:25;;;;;;;12.90;8.73;;;;;;;;;;5077928;28;20042;-72
2021/06/20 06:12:52;;;;;;;11.63;8.98;;;;;;;;;;5075170;28;20028;-72
2021/06/20 06:15:18;;;;;;;12.75;8.45;;;;;;;;;;5075537;28;20517;-72
2021/06/20 06:17:44;;;;;;;12.70;9.38;;;;;;;;;;5075909;28;20020;-72
2021/06/20 06:20:11;;;;;;;10.43;8.68;;;;;;;;;;5070910;28;20029;-72
2021/06/20 06:22:37;;;;;;;15.77;8.25;;;;;;;;;;5075792;28;20029;-71
2021/06/20 06:25:03;;;;;;;11.38;8.60;;;;;;;;;;5076685;28;20035;-72
2021/06/20 06:27:29;;;;;;;11.43;8.43;;;;;;;;;;5068646;28;20387;-71
2021/06/20 06:29:56;;;;;;;12.48;8.35;;;;;;;;;;5055002;28;20031;-72
2021/06/20 06:32:22;;;;;;;14.00;8.52;;;;;;;;;;5075812;28;20032;-71
2021/06/20 06:34:48;;;;;;;12.18;7.45;;;;;;;;;;5079747;28;20483;-72
2021/06/20 06:37:14;;;;;;;11.15;8.68;;;;;;;;;;5082023;28;20042;-73
2021/06/20 06:39:41;;;;;;;11.00;7.65;;;;;;;;;;5087776;28;20462;-72
2021/06/20 06:42:08;;;;;;;10.77;7.32;;;;;;;;;;5077418;28;20111;-72
2021/06/20 06:44:34;;;;;;;7.45;6.60;;;;;;;;;;5069782;28;20025;-71
2021/06/20 06:47:00;;;;;;;9.32;6.85;;;;;;;;;;5070153;28;20024;-72
2021/06/20 06:49:26;;;;;;;10.35;6.72;;;;;;;;;;5078219;28;20027;-72
2021/06/20 06:51:53;;;;;;;10.50;7.50;;;;;;;;;;5079687;28;20525;-72
2021/06/20 06:54:19;;;;;;;20.38;14.75;;;;;;;;;;5082200;28;20032;-73
2021/06/20 06:56:46;;;;;;;19.55;11.60;;;;;;;;;;5090167;28;20024;-72
2021/06/20 06:59:12;;;;;;;19.63;10.95;;;;;;;;;;5086754;28;20052;-72
2021/06/20 07:01:38;;;;;;;23.65;10.55;;;;;;;;;;5074684;28;20025;-72
2021/06/20 07:04:04;;;;;;;12.88;8.80;;;;;;;;;;5075840;28;20024;-72
2021/06/20 07:06:30;;;;;;;15.85;8.77;;;;;;;;;;5074900;28;20056;-72
2021/06/20 07:08:56;;;;;;;15.50;8.60;;;;;;;;;;5083894;28;20035;-72
2021/06/20 07:11:23;;;;;;;11.18;7.50;;;;;;;;;;5077294;28;20510;-73
2021/06/20 07:13:49;;;;;;;9.95;6.97;;;;;;;;;;5076205;28;20495;-73
2021/06/20 07:16:15;;;;;;;23.48;9.48;;;;;;;;;;5073079;28;20032;-72
2021/06/20 07:18:41;;;;;;;13.07;7.78;;;;;;;;;;5080937;28;20052;-72
2021/06/20 07:21:08;;;;;;;8.98;6.30;;;;;;;;;;5071439;28;20032;-72
2021/06/20 07:23:34;;;;;;;7.20;5.43;;;;;;;;;;5074606;28;20052;-72
2021/06/20 07:26:00;;;;;;;8.13;6.13;;;;;;;;;;5075428;28;20021;-72
2021/06/20 07:28:26;;;;;;;7.65;6.50;;;;;;;;;;5093889;28;20020;-73
2021/06/20 07:30:52;;;;;;;6.32;5.70;;;;;;;;;;5078575;28;20035;-72
2021/06/20 07:33:23;;;;;;;7.65;6.15;;;;;;;;;;5091864;28;20534;-73
2021/06/20 07:35:51;;;;;;;7.22;5.68;;;;;;;;;;5079735;28;20034;-72
2021/06/20 07:38:18;;;;;;;5.28;4.78;;;;;;;;;;5087423;28;20020;-72
2021/06/20 07:40:44;;;;;;;7.35;5.40;;;;;;;;;;5086438;28;20169;-72
2021/06/20 07:43:10;;;;;;;7.50;5.22;;;;;;;;;;5083137;28;20025;-72
2021/06/20 07:45:37;;;;;;;6.07;5.07;;;;;;;;;;5079836;28;20024;-72
2021/06/20 07:48:06;;;;;;;6.15;5.40;;;;;;;;;;5072629;28;20029;-72
2021/06/20 07:50:32;;;;;;;5.38;4.60;;;;;;;;;;5072577;28;20047;-72
2021/06/20 07:52:58;;;;;;;6.38;5.38;;;;;;;;;;5069486;28;20083;-72
2021/06/20 07:55:24;;;;;;;6.43;5.40;;;;;;;;;;5071843;28;20024;-72
2021/06/20 07:57:50;;;;;;;9.07;5.30;;;;;;;;;;5075434;28;20017;-72
2021/06/20 08:00:16;;;;;;;8.65;6.13;;;;;;;;;;5079151;28;20537;-72
2021/06/20 08:02:42;;;;;;;7.03;5.03;;;;;;;;;;5076229;28;20060;-73
2021/06/20 08:05:09;;;;;;;7.95;5.20;;;;;;;;;;5082559;28;20548;-72
2021/06/20 08:07:35;;;;;;;7.25;4.85;;;;;;;;;;5071363;28;20150;-73
2021/06/20 08:10:01;;;;;;;6.78;4.60;;;;;;;;;;5069752;28;20522;-72
2021/06/20 08:12:28;;;;;;;7.95;5.22;;;;;;;;;;5072421;28;20482;-72
2021/06/20 08:14:56;;;;;;;6.40;4.47;;;;;;;;;;5087591;28;20016;-72
2021/06/20 08:17:23;;;;;;;4.97;4.45;;;;;;;;;;5078710;28;20098;-72
2021/06/20 08:19:49;;;;;;;5.78;4.40;;;;;;;;;;5068108;28;20383;-72
2021/06/20 08:22:17;;;;;;;7.40;5.00;;;;;;;;;;5074370;28;20024;-72
2021/06/20 08:24:44;;;;;;;4.80;4.30;;;;;;;;;;5074166;28;20101;-72
2021/06/20 08:27:10;;;;;;;5.35;4.05;;;;;;;;;;5058719;28;20016;-72
2021/06/20 08:29:36;;;;;;;4.72;3.95;;;;;;;;;;5073138;28;20421;-72
2021/06/20 08:32:02;;;;;;;5.78;3.53;;;;;;;;;;5073513;28;20223;-73
2021/06/20 08:34:30;;;;;;;4.40;3.95;;;;;;;;;;5075425;28;20044;-72
2021/06/20 08:37:00;;;;;;;5.22;3.90;;;;;;;;;;5079633;28;20051;-70
2021/06/20 08:39:26;;;;;;;5.43;3.90;;;;;;;;;;5069342;28;20056;-72
2021/06/20 08:41:52;;;;;;;6.00;4.28;;;;;;;;;;5073163;28;20493;-72
2021/06/20 08:44:20;;;;;;;4.82;4.05;;;;;;;;;;5068588;28;20032;-72
2021/06/20 08:46:47;;;;;;;7.82;3.95;;;;;;;;;;5078650;28;20080;-72
2021/06/20 08:49:13;;;;;;;6.38;4.28;;;;;;;;;;5072517;28;20105;-72
2021/06/20 08:51:40;;;;;;;4.95;4.05;;;;;;;;;;5071861;28;20040;-72
2021/06/20 08:54:07;;;;;;;5.53;4.07;;;;;;;;;;5071565;28;20025;-72
2021/06/20 08:56:33;;;;;;;5.30;4.00;;;;;;;;;;5070458;28;20123;-72
2021/06/20 08:59:00;;;;;;;6.22;4.20;;;;;;;;;;5087974;28;20073;-72
2021/06/20 09:01:26;;;;;;;8.45;4.18;;;;;;;;;;5060261;28;20479;-72
2021/06/20 09:03:52;;;;;;;4.53;3.85;;;;;;;;;;5089312;28;20555;-72
2021/06/20 09:06:19;;;;;;;6.22;4.10;;;;;;;;;;5090479;28;20520;-71
2021/06/20 09:08:47;;;;;;;4.70;3.90;;;;;;;;;;5071826;28;20036;-72
2021/06/20 09:11:22;;;;;;;4.78;3.83;;;;;;;;;;5071781;28;20040;-73
2021/06/20 09:13:49;;;;;;;7.25;5.35;;;;;;;;;;5071930;28;20233;-72
2021/06/20 09:16:15;;;;;;;5.68;4.60;;;;;;;;;;5071588;28;20539;-72
2021/06/20 09:18:53;;;;;;;7.07;4.15;;;;;;;;;;5067100;28;20394;-72
2021/06/20 09:21:24;;;;;;;6.50;4.45;;;;;;;;;;5050616;28;20052;-72
2021/06/20 09:23:51;;;;;;;7.28;4.53;;;;;;;;;;5064687;28;20056;-72
2021/06/20 09:26:18;;;;;;;6.68;4.15;;;;;;;;;;5070660;28;20017;-72
2021/06/20 09:28:48;;;;;;;7.13;4.85;;;;;;;;;;5071333;28;20444;-72
2021/06/20 09:31:14;;;;;;;6.00;4.40;;;;;;;;;;5071886;28;20027;-72
2021/06/20 09:33:40;;;;;;;5.60;4.95;;;;;;;;;;5073776;28;20025;-72
2021/06/20 09:36:07;;;;;;;5.35;4.45;;;;;;;;;;5055680;28;20029;-72
2021/06/20 09:38:34;;;;;;;6.32;4.93;;;;;;;;;;5064480;28;20032;-72
2021/06/20 09:41:06;;;;;;;8.80;4.70;;;;;;;;;;5075856;28;20048;-72
2021/06/20 09:43:33;;;;;;;7.57;4.82;;;;;;;;;;5075217;28;20095;-72
2021/06/20 09:45:59;;;;;;;10.48;4.95;;;;;;;;;;5075743;28;20055;-72
2021/06/20 09:48:25;;;;;;;6.95;4.43;;;;;;;;;;5075280;28;20052;-73
2021/06/20 09:50:52;;;;;;;5.75;4.35;;;;;;;;;;5074592;28;20036;-72
2021/06/20 09:53:20;;;;;;;5.28;4.70;;;;;;;;;;5074184;28;20036;-72
2021/06/20 09:55:46;;;;;;;7.63;4.53;;;;;;;;;;5074997;28;20048;-70
2021/06/20 09:58:12;;;;;;;7.20;4.35;;;;;;;;;;5075380;28;20020;-71
2021/06/20 10:00:42;;;;;;;8.57;4.43;;;;;;;;;;5075238;28;20028;-72
2021/06/20 10:03:09;;;;;;;7.03;5.32;;;;;;;;;;5075068;28;20021;-72
2021/06/20 10:05:37;;;;;;;6.40;5.07;;;;;;;;;;5075320;28;20024;-72
2021/06/20 10:08:03;;;;;;;5.70;4.38;;;;;;;;;;5071279;28;20100;-72
2021/06/20 10:10:30;;;;;;;7.38;4.32;;;;;;;;;;5055051;28;20028;-72
2021/06/20 10:12:56;;;;;;;5.28;4.30;;;;;;;;;;5087416;28;20067;-72
2021/06/20 10:15:23;;;;;;;6.07;4.40;;;;;;;;;;5074861;28;20039;-72
2021/06/20 10:17:58;;;;;;;5.70;4.20;;;;;;;;;;5074981;28;20033;-72
2021/06/20 10:20:29;;;;;;;7.90;4.55;;;;;;;;;;5073779;28;20021;-71
2021/06/20 10:22:55;;;;;;;5.85;4.63;;;;;;;;;;5075070;28;20025;-72
2021/06/20 10:25:39;;;;;;;6.45;4.03;;;;;;;;;;5068704;28;20039;-72
2021/06/20 10:28:06;;;;;;;11.15;4.22;;;;;;;;;;5063261;28;20386;-72
2021/06/20 10:30:35;;;;;;;7.82;4.65;;;;;;;;;;5074796;28;20032;-72
2021/06/20 10:33:07;;;;;;;7.15;4.13;;;;;;;;;;5074213;28;20020;-71
2021/06/20 10:35:33;;;;;;;7.50;4.78;;;;;;;;;;5074491;28;20161;-72
2021/06/20 10:37:59;;;;;;;6.97;4.53;;;;;;;;;;5074369;28;20090;-72
2021/06/20 10:40:31;;;;;;;6.32;3.85;;;;;;;;;;5074689;28;20024;-72
2021/06/20 10:42:58;;;;;;;4.35;3.50;;;;;;;;;;5068770;28;20386;-71
2021/06/20 10:45:34;;;;;;;5.85;3.65;;;;;;;;;;5081355;28;20024;-71
2021/06/20 10:48:21;;;;;;;4.07;3.53;;;;;;;;;;5070063;28;20021;-71
2021/06/20 10:50:49;;;;;;;5.78;3.83;;;;;;;;;;5088059;28;20123;-72
2021/06/20 10:53:15;;;;;;;5.05;3.60;;;;;;;;;;5092565;28;20028;-72
2021/06/20 10:55:51;;;;;;;5.13;3.95;;;;;;;;;;5082595;28;20028;-72
2021/06/20 10:58:19;;;;;;;5.05;3.13;;;;;;;;;;5086647;28;20032;-71
2021/06/20 11:00:45;;;;;;;4.75;3.55;;;;;;;;;;5071677;28;20075;-72
2021/06/20 11:03:13;;;;;;;4.97;3.55;;;;;;;;;;5078778;28;20070;-72
2021/06/20 11:05:43;;;;;;;5.60;3.75;;;;;;;;;;5085424;28;20040;-72
2021/06/20 11:08:11;;;;;;;6.30;4.85;;;;;;;;;;5078383;28;20020;-71
2021/06/20 11:10:37;;;;;;;7.90;4.32;;;;;;;;;;5081509;28;20541;-73
2021/06/20 11:13:04;;;;;;;8.18;4.32;;;;;;;;;;5083208;28;20025;-71
2021/06/20 11:15:30;;;;;;;8.30;4.68;;;;;;;;;;5074313;28;20047;-72
2021/06/20 11:18:06;;;;;;;4.97;4.00;;;;;;;;;;5056964;28;20032;-72
2021/06/20 11:20:32;;;;;;;6.85;4.30;;;;;;;;;;5074820;28;20060;-72
2021/06/20 11:22:58;;;;;;;4.53;4.13;;;;;;;;;;5076126;28;20133;-72
2021/06/20 11:25:25;;;;;;;5.53;4.72;;;;;;;;;;5077574;28;20110;-72
2021/06/20 11:27:51;;;;;;;5.93;4.30;;;;;;;;;;5093946;28;20382;-72
2021/06/20 11:30:18;;;;;;;6.38;4.30;;;;;;;;;;5077404;28;20065;-72
2021/06/20 11:32:44;;;;;;;6.13;3.88;;;;;;;;;;5072788;28;20024;-73
2021/06/20 11:35:16;;;;;;;4.95;4.05;;;;;;;;;;5079680;28;20074;-72
2021/06/20 11:37:57;;;;;;;6.00;4.32;;;;;;;;;;5065050;28;20035;-72
2021/06/20 11:40:24;;;;;;;7.18;4.18;;;;;;;;;;5084035;28;20035;-72
2021/06/20 11:42:52;;;;;;;8.20;3.80;;;;;;;;;;5087655;28;20103;-71
2021/06/20 11:45:28;;;;;;;5.55;3.58;;;;;;;;;;5078062;28;20490;-72
2021/06/20 11:47:57;;;;;;;5.05;3.10;;;;;;;;;;5074347;28;20406;-73
2021/06/20 11:50:25;;;;;;;5.60;3.40;;;;;;;;;;5071872;28;20072;-72
2021/06/20 11:52:56;;;;;;;6.90;3.88;;;;;;;;;;5098080;28;20053;-72
2021/06/20 11:55:24;;;;;;;3.72;3.20;;;;;;;;;;5085396;28;20064;-73
2021/06/20 11:57:50;;;;;;;4.47;2.67;;;;;;;;;;5087530;28;20474;-72
2021/06/20 12:00:24;;;;;;;3.95;2.88;;;;;;;;;;5090050;28;20067;-71
2021/06/20 12:03:02;;;;;;;3.63;2.90;;;;;;;;;;5084645;28;20090;-72
2021/06/20 12:05:28;;;;;;;4.13;3.40;;;;;;;;;;5053055;28;20025;-72
2021/06/20 12:07:58;;;;;;;3.80;2.95;;;;;;;;;;5073663;28;20029;-72
2021/06/20 12:10:24;;;;;;;4.75;2.78;;;;;;;;;;5072887;28;20090;-71
2021/06/20 12:13:04;;;;;;;3.30;2.78;;;;;;;;;;5072779;28;20016;-71
2021/06/20 12:15:32;;;;;;;3.30;2.80;;;;;;;;;;5076691;28;20081;-71
2021/06/20 12:17:58;;;;;;;3.75;2.58;;;;;;;;;;5077251;28;20089;-71
2021/06/20 12:20:28;;;;;;;2.60;2.40;;;;;;;;;;5077409;28;20474;-71
2021/06/20 12:22:54;;;;;;;4.30;2.53;;;;;;;;;;5074296;28;20021;-71
2021/06/20 12:25:20;;;;;;;4.93;2.70;;;;;;;;;;5076241;28;20016;-71
2021/06/20 12:27:46;;;;;;;3.38;2.20;;;;;;;;;;5083788;28;20052;-71
2021/06/20 12:30:12;;;;;;;4.43;2.70;;;;;;;;;;5073508;28;20031;-71
2021/06/20 12:32:39;;;;;;;2.67;2.47;;;;;;;;;;5077145;28;20025;-71
2021/06/20 12:35:05;;;;;;;3.65;2.22;;;;;;;;;;5071899;28;20031;-71
2021/06/20 12:37:42;;;;;;;3.83;2.72;;;;;;;;;;5087907;28;20024;-72
2021/06/20 12:40:12;;;;;;;4.47;2.60;;;;;;;;;;5073229;28;20436;-73
2021/06/20 12:42:49;;;;;;;3.83;2.60;;;;;;;;;;5058411;28;20085;-71
2021/06/20 12:45:19;;;;;;;2.75;2.33;;;;;;;;;;5063733;28;20024;-72
2021/06/20 12:47:46;;;;;;;2.70;2.50;;;;;;;;;;5072494;28;20025;-71
2021/06/20 12:50:12;;;;;;;3.17;2.58;;;;;;;;;;5072363;28;20095;-72
2021/06/20 12:52:38;;;;;;;5.10;2.90;;;;;;;;;;5072726;28;20044;-72
2021/06/20 12:55:24;;;;;;;3.60;2.33;;;;;;;;;;5082484;28;20531;-72
2021/06/20 12:57:50;;;;;;;3.10;2.80;;;;;;;;;;5069984;28;20028;-72
2021/06/20 13:00:17;;;;;;;4.90;2.75;;;;;;;;;;5084951;28;20153;-72
2021/06/20 13:02:43;;;;;;;5.55;2.58;;;;;;;;;;5074073;28;20028;-71
2021/06/20 13:05:09;;;;;;;4.35;3.03;;;;;;;;;;5075133;28;20419;-72
2021/06/20 13:07:37;;;;;;;4.13;2.72;;;;;;;;;;5081362;28;20028;-73
2021/06/20 13:10:04;;;;;;;5.93;3.25;;;;;;;;;;5081550;28;20048;-72
2021/06/20 13:12:30;;;;;;;3.90;2.65;;;;;;;;;;5082656;28;20020;-72
2021/06/20 13:14:56;;;;;;;7.15;2.90;;;;;;;;;;5085695;28;20037;-72
2021/06/20 13:17:22;;;;;;;3.97;2.78;;;;;;;;;;5079348;28;20027;-73
2021/06/20 13:19:48;;;;;;;5.75;3.03;;;;;;;;;;5082844;28;20591;-72
2021/06/20 13:22:15;;;;;;;3.83;2.90;;;;;;;;;;5096054;28;20036;-72
2021/06/20 13:24:41;;;;;;;4.45;2.80;;;;;;;;;;5087952;28;20115;-72
2021/06/20 13:27:07;;;;;;;3.53;3.22;;;;;;;;;;5095068;28;20048;-72
2021/06/20 13:29:33;;;;;;;4.55;3.10;;;;;;;;;;5077850;28;20052;-72
2021/06/20 13:31:59;;;;;;;5.63;2.80;;;;;;;;;;5076343;28;20027;-73
2021/06/20 13:34:25;;;;;;;4.35;2.60;;;;;;;;;;5084577;28;20398;-73
2021/06/20 13:36:51;;;;;;;3.47;2.80;;;;;;;;;;5072899;28;20025;-73
2021/06/20 13:39:17;;;;;;;5.88;2.97;;;;;;;;;;5059623;28;20047;-73
2021/06/20 13:41:43;;;;;;;3.25;2.95;;;;;;;;;;5061173;28;20067;-73
2021/06/20 13:44:09;;;;;;;2.95;2.53;;;;;;;;;;5084982;28;20095;-73
2021/06/20 13:46:36;;;;;;;3.67;3.38;;;;;;;;;;5081329;28;20027;-73
2021/06/20 13:49:02;;;;;;;4.25;3.00;;;;;;;;;;5086923;28;20527;-72
2021/06/20 13:51:28;;;;;;;5.13;2.40;;;;;;;;;;5078562;28;20129;-73
2021/06/20 13:53:54;;;;;;;4.40;2.58;;;;;;;;;;5075986;28;20024;-73
2021/06/20 13:56:20;;;;;;;3.50;2.78;;;;;;;;;;5083961;28;20024;-74
2021/06/20 13:58:46;;;;;;;3.72;2.70;;;;;;;;;;5091293;28;20780;-74
2021/06/20 14:01:12;;;;;;;3.55;2.47;;;;;;;;;;5093375;28;20031;-72
2021/06/20 14:03:38;;;;;;;3.30;2.50;;;;;;;;;;5076026;28;20021;-73
2021/06/20 14:06:05;;;;;;;2.92;2.35;;;;;;;;;;5072112;28;20458;-72
2021/06/20 14:08:32;;;;;;;3.47;2.60;;;;;;;;;;5075376;28;20112;-73
2021/06/20 14:10:58;;;;;;;3.58;2.30;;;;;;;;;;5087552;28;20077;-73
2021/06/20 14:13:24;;;;;;;4.15;2.80;;;;;;;;;;5077865;28;20017;-73
2021/06/20 14:15:50;;;;;;;2.90;2.60;;;;;;;;;;5074918;28;20017;-73
2021/06/20 14:18:16;;;;;;;2.70;2.50;;;;;;;;;;5087544;28;20078;-73
2021/06/20 14:20:43;;;;;;;6.60;2.83;;;;;;;;;;5084839;28;20052;-74
2021/06/20 14:23:09;;;;;;;3.22;2.80;;;;;;;;;;5078550;28;20462;-73
2021/06/20 14:25:35;;;;;;;3.33;3.03;;;;;;;;;;5084405;28;20427;-73
2021/06/20 14:28:01;;;;;;;3.20;2.80;;;;;;;;;;5076771;28;20016;-74
2021/06/20 14:30:27;;;;;;;3.75;2.70;;;;;;;;;;5074746;28;20043;-73
2021/06/20 14:32:53;;;;;;;5.63;3.28;;;;;;;;;;5087348;28;20074;-73
2021/06/20 14:35:20;;;;;;;3.60;2.67;;;;;;;;;;5090942;28;20017;-73